Flight Track Log - Related Links

Times and Time Zones

All times are in EDT time to prevent confusion due to time zone crossing. See the UAL906 flight status page for this flight to view local times or setup timezone preferences in your user account.

Time Position Orientation Groundspeed Altitude Reporting Facility
EDT Latitude Longitude Course Direction KTS MPH feet Rate Location/Type
Sun 07:33:00 AM 50.1617 8.2689 300° West  Level FlightAware Approximate
Sun 07:33:01 AM 49.9550 8.5290 300° West 188 216 2,300  Level FlightAware ADS-B
Sun 07:33:30 AM 49.9230 8.5320 177° South 192 221 3,400 1,756 Climbing FlightAware ADS-B
Sun 07:33:42 AM 49.9120 8.5330 177° South 205 236 3,500 750 Climbing FlightAware ADS-B
Sun 07:34:10 AM 49.8840 8.5340 179° South 232 267 3,900 1,100 Climbing FlightAware ADS-B
Sun 07:34:42 AM 49.8470 8.5220 192° South 257 296 4,600 1,500 Climbing FlightAware ADS-B
Sun 07:35:10 AM 49.8150 8.5020 202° Southwest 276 318 5,400 1,889 Climbing FlightAware ADS-B
Sun 07:35:36 AM 49.7830 8.4820 202° Southwest 284 327 6,300 2,100 Climbing FlightAware ADS-B
Sun 07:35:50 AM 49.7700 8.4660 218° Southwest 282 325 6,800 1,846 Climbing FlightAware ADS-B
Sun 07:36:02 AM 49.7620 8.4450 239° Southwest 283 326 7,100 1,750 Climbing FlightAware ADS-B
Sun 07:36:14 AM 49.7590 8.4220 259° West 283 326 7,500 2,318 Climbing FlightAware ADS-B
Sun 07:36:46 AM 49.7680 8.3570 282° West 282 325 8,800 2,318 Climbing FlightAware ADS-B
Sun 07:36:58 AM 49.7710 8.3360 282° West 283 326 9,200 1,739 Climbing FlightAware ADS-B
Sun 07:37:55 AM 49.7760 8.2160 274° West 305 351 10,800 1,353 Climbing FlightAware ADS-B
Sun 07:38:40 AM 49.7700 8.1170 265° West 341 392 11,500 1,129 Climbing FlightAware ADS-B
Sun 07:39:20 AM 49.7640 8.0120 265° West 360 414 12,400 1,650 Climbing FlightAware ADS-B
Sun 07:40:00 AM 49.7590 7.9070 266° West 365 420 13,700 1,650 Climbing FlightAware ADS-B
Sun 07:40:40 AM 49.7540 7.8000 266° West 383 441 14,600 1,553 Climbing FlightAware ADS-B
Sun 07:41:25 AM 49.7470 7.6810 265° West 387 445 15,900 1,773 Climbing FlightAware ADS-B
Sun 07:42:08 AM 49.7410 7.5630 266° West 390 449 17,200 1,663 Climbing FlightAware ADS-B
Sun 07:42:48 AM 49.7350 7.4490 265° West 396 456 18,200 1,412 Climbing FlightAware ADS-B
Sun 07:43:33 AM 49.7280 7.3210 265° West 405 466 19,200 1,308 Climbing FlightAware ADS-B
Sun 07:44:06 AM 49.7230 7.2240 265° West 411 473 19,900 1,280 Climbing FlightAware ADS-B
Sun 07:44:48 AM 49.7160 7.1030 265° West 418 481 20,800 1,091 Climbing FlightAware ADS-B
Sun 07:45:34 AM 49.7100 7.0010 265° West 422 486 21,500 1,282 Climbing FlightAware ADS-B
Sun 07:46:31 AM 49.6970 6.7880 265° West 432 497 23,000 1,379 Climbing FlightAware ADS-B
Sun 07:47:01 AM 49.6920 6.6960 265° West 436 502 23,500 1,029 Climbing FlightAware ADS-B
Sun 07:47:41 AM 49.6840 6.5760 264° West 443 510 24,200 1,059 Climbing FlightAware ADS-B
Sun 07:48:26 AM 49.6750 6.4320 265° West 449 517 25,000 1,116 Climbing FlightAware ADS-B
Sun 07:49:07 AM 49.6670 6.3030 265° West 455 524 25,800 1,102 Climbing FlightAware ADS-B
Sun 07:50:04 AM 49.6550 6.1130 264° West 462 532 26,800 1,032 Climbing FlightAware ADS-B
Sun 07:50:40 AM 49.6470 5.9950 264° West 466 536 27,400 878 Climbing FlightAware ADS-B
Sun 07:51:26 AM 49.6360 5.8400 264° West 473 544 28,000 867 Climbing FlightAware ADS-B
Sun 07:52:10 AM 49.6270 5.7010 264° West 478 550 28,700 847 Climbing FlightAware ADS-B
Sun 07:52:51 AM 49.6160 5.5540 263° West 485 558 29,200 767 Climbing FlightAware ADS-B
Sun 07:53:36 AM 49.6050 5.4000 264° West 492 566 29,800 706 Climbing FlightAware ADS-B
Sun 07:54:16 AM 49.5950 5.2630 264° West 497 572 30,200 667 Climbing FlightAware ADS-B
Sun 07:54:57 AM 49.5760 5.1260 258° West 504 580 30,700 750 Climbing FlightAware ADS-B
Sun 07:55:36 AM 49.5540 4.9770 257° West 509 586 31,200 918 Climbing FlightAware ADS-B
Sun 07:56:22 AM 49.5340 4.8290 258° West 502 578 32,000 977 Climbing FlightAware ADS-B
Sun 07:57:02 AM 49.5130 4.6820 258° West 502 578 32,600 825 Climbing FlightAware ADS-B
Sun 07:57:42 AM 49.4940 4.5520 257° West 504 580 33,100 720 Climbing FlightAware ADS-B
Sun 07:58:17 AM 49.4750 4.4190 258° West 505 581 33,500 608 Climbing FlightAware ADS-B
Sun 07:59:01 AM 49.4520 4.2690 257° West 508 585 33,900 494 Climbing FlightAware ADS-B
Sun 07:59:42 AM 49.4310 4.1260 257° West 510 587 34,200 419 Climbing FlightAware ADS-B
Sun 07:59:44 AM 49.4266 4.1079 257° West 1 1 34,200 600 Level FlightAware UK
Sun 07:59:52 AM 49.4250 4.0860 257° West 511 588 34,300 658 Climbing FlightAware ADS-B
Sun 08:00:57 AM 49.3910 3.8630 257° West 511 588 35,000 382 Climbing FlightAware ADS-B
Sun 08:01:42 AM 49.3650 3.6970 257° West 511 588 35,000  Level FlightAware ADS-B
Sun 08:02:22 AM 49.3440 3.5590 257° West 511 588 35,000  Level FlightAware ADS-B
Sun 08:03:07 AM 49.3190 3.3990 257° West 510 587 35,000  Level FlightAware ADS-B
Sun 08:03:47 AM 49.2990 3.2720 256° West 510 587 35,000  Level FlightAware ADS-B
Sun 08:04:25 AM 49.2737 3.1182 256° West 1 1 35,000  Level FlightAware UK
Sun 08:04:46 AM 49.2650 3.0580 256° West 511 588 35,000  Level FlightAware ADS-B
Sun 08:05:26 AM 49.2410 2.9110 256° West 511 588 35,000  Level FlightAware ADS-B
Sun 08:06:10 AM 49.2240 2.7500 261° West 509 586 35,000  Level FlightAware ADS-B
Sun 08:07:04 AM 49.2190 2.5580 268° West 509 586 35,000  Level FlightAware ADS-B
Sun 08:07:37 AM 49.2158 2.4374 268° West 1 1 35,000  Level FlightAware UK
Sun 08:07:46 AM 49.2160 2.4130 268° West 509 586 35,000  Level FlightAware ADS-B
Sun 08:08:24 AM 49.2130 2.2750 268° West 509 586 35,000  Level FlightAware ADS-B
Sun 08:08:55 AM 49.2091 2.1584 268° West 478 550 35,000  Level FlightAware UK
Sun 08:09:10 AM 49.2090 2.1070 268° West 509 586 35,000  Level FlightAware ADS-B
Sun 08:09:51 AM 49.2050 1.9570 268° West 509 586 35,000  Level FlightAware ADS-B
Sun 08:10:35 AM 49.2010 1.7990 268° West 510 587 35,000 -64 Level FlightAware ADS-B
Sun 08:11:25 AM 49.1952 1.6203 268° West 476 548 34,900  Descending FlightAware UK
Sun 08:11:40 AM 49.1960 1.6100 268° West 510 587 35,000 113 Climbing FlightAware ADS-B
Sun 08:12:18 AM 49.1910 1.4340 268° West 510 587 35,000  Level FlightAware ADS-B
Sun 08:13:04 AM 49.1860 1.2680 267° West 511 588 35,000  Level FlightAware ADS-B
Sun 08:13:43 AM 49.1803 1.1246 267° West 478 550 35,000  Level FlightAware UK
Sun 08:13:44 AM 49.1810 1.1240 267° West 511 588 35,000  Level FlightAware ADS-B
Sun 08:14:19 AM 49.1759 0.9956 267° West 478 550 35,000  Level FlightAware UK
Sun 08:14:20 AM 49.1770 0.9920 267° West 512 589 35,000  Level FlightAware ADS-B
Sun 08:15:01 AM 49.1707 0.8450 267° West 480 552 35,000  Level FlightAware UK
Sun 08:15:02 AM 49.1720 0.8430 267° West 512 589 35,000  Level FlightAware ADS-B
Sun 08:15:44 AM 49.1660 0.6930 267° West 511 588 35,000  Level FlightAware ADS-B
Sun 08:16:24 AM 49.1599 0.5433 267° West 478 550 35,000  Level FlightAware UK
Sun 08:16:24 AM 49.1610 0.5440 267° West 512 589 35,000  Level FlightAware ADS-B
Sun 08:16:54 AM 49.1619 0.4354 267° West 478 550 35,000  Level FlightAware UK
Sun 08:17:04 AM 49.1640 0.4070 267° West 509 586 35,000  Level FlightAware ADS-B
Sun 08:17:48 AM 49.1796 0.2448 267° West 478 550 35,000  Level FlightAware UK
Sun 08:17:50 AM 49.1800 0.2400 267° West 507 583 35,000  Level FlightAware ADS-B
Sun 08:18:30 AM 49.1960 0.0960 280° West 508 585 35,000  Level FlightAware ADS-B
Sun 08:19:16 AM 49.2130 -0.0650 279° West 509 586 35,000  Level FlightAware ADS-B
Sun 08:19:55 AM 49.2280 -0.2030 280° West 509 586 35,000  Level FlightAware ADS-B
Sun 08:20:36 AM 49.2434 -0.3479 280° West 478 550 35,000  Level FlightAware UK
Sun 08:20:39 AM 49.2450 -0.3600 280° West 509 586 35,000  Level FlightAware ADS-B
Sun 08:21:19 AM 49.2590 -0.4890 279° West 510 587 35,000  Level FlightAware ADS-B
Sun 08:21:54 AM 49.2730 -0.6230 279° West 510 587 35,000  Level FlightAware ADS-B
Sun 08:22:29 AM 49.2857 -0.7525 279° West 478 550 35,000  Level FlightAware UK
Sun 08:22:45 AM 49.2910 -0.7960 279° West 511 588 35,000  Level FlightAware ADS-B
Sun 08:23:23 AM 49.3053 -0.9442 279° West 480 552 35,000  Level FlightAware UK
Sun 08:23:25 AM 49.3060 -0.9400 279° West 509 586 35,000  Level FlightAware ADS-B
Sun 08:24:05 AM 49.3204 -1.0935 279° West 480 552 35,000  Level FlightAware UK
Sun 08:24:05 AM 49.3210 -1.0910 279° West 509 586 35,000  Level FlightAware ADS-B
Sun 08:24:41 AM 49.3332 -1.2219 279° West 478 550 35,000  Level FlightAware UK
Sun 08:24:50 AM 49.3360 -1.2470 279° West 510 587 35,000  Level FlightAware ADS-B
Sun 08:25:30 AM 49.3490 -1.3840 278° West 511 588 35,000  Level FlightAware ADS-B
Sun 08:26:05 AM 49.3618 -1.5220 278° West 480 552 35,000  Level FlightAware UK
Sun 08:26:10 AM 49.3630 -1.5360 278° West 511 588 35,000  Level FlightAware ADS-B
Sun 08:26:50 AM 49.3770 -1.6810 278° West 510 587 35,000  Level FlightAware ADS-B
Sun 08:27:29 AM 49.3904 -1.8225 278° West 480 552 35,000  Level FlightAware UK
Sun 08:27:31 AM 49.3900 -1.8210 278° West 510 587 35,000 -171 Level FlightAware ADS-B
Sun 08:28:04 AM 49.4019 -1.9512 278° West 480 552 34,900  Descending FlightAware UK
Sun 08:28:06 AM 49.4010 -1.9410 278° West 511 588 35,000 143 Climbing FlightAware ADS-B
Sun 08:28:46 AM 49.4150 -2.0970 278° West 511 588 35,000  Level FlightAware ADS-B
Sun 08:29:41 AM 49.4320 -2.2930 278° West 511 588 35,000 -67 Level FlightAware ADS-B
Sun 08:30:16 AM 49.4432 -2.4265 278° West 478 550 34,900  Descending FlightAware UK
Sun 08:30:27 AM 49.4460 -2.4610 278° West 510 587 35,000 118 Climbing FlightAware ADS-B
Sun 08:31:07 AM 49.4580 -2.6060 277° West 511 588 35,000  Level FlightAware ADS-B
Sun 08:31:51 AM 49.4720 -2.7650 278° West 511 588 35,000  Level FlightAware ADS-B
Sun 08:32:29 AM 49.4830 -2.9030 277° West 511 588 35,000  Level FlightAware ADS-B
Sun 08:33:10 AM 49.4940 -3.0440 277° West 511 588 35,000  Level FlightAware ADS-B
Sun 08:33:49 AM 49.5060 -3.1880 277° West 511 588 35,000  Level FlightAware ADS-B
Sun 08:34:29 AM 49.5170 -3.3330 277° West 511 588 35,000  Level FlightAware ADS-B
Sun 08:35:09 AM 49.5280 -3.4780 277° West 512 589 35,000  Level FlightAware ADS-B
Sun 08:35:49 AM 49.5390 -3.6210 277° West 512 589 35,000  Level FlightAware ADS-B
Sun 08:36:29 AM 49.5500 -3.7660 277° West 512 589 35,000  Level FlightAware ADS-B
Sun 08:37:09 AM 49.5610 -3.9090 277° West 512 589 35,000  Level FlightAware ADS-B
Sun 08:37:48 AM 49.5710 -4.0490 276° West 512 589 35,000  Level FlightAware ADS-B
Sun 08:38:27 AM 49.5808 -4.1938 276° West 478 550 35,000  Level FlightAware UK
Sun 08:38:29 AM 49.5810 -4.2000 276° West 511 588 35,000  Level FlightAware ADS-B
Sun 08:39:09 AM 49.5930 -4.3460 277° West 511 588 35,000  Level FlightAware ADS-B
Sun 08:39:39 AM 49.6058 -4.4522 277° West 478 550 35,000  Level FlightAware UK
Sun 08:39:49 AM 49.6100 -4.4860 277° West 510 587 35,000  Level FlightAware ADS-B
Sun 08:40:35 AM 49.6310 -4.6480 281° West 510 587 35,000  Level FlightAware ADS-B
Sun 08:41:09 AM 49.6464 -4.7727 281° West 478 550 35,000  Level FlightAware UK
Sun 08:41:17 AM 49.6490 -4.7980 281° West 510 587 35,000  Level FlightAware ADS-B
Sun 08:41:57 AM 49.6670 -4.9420 281° West 510 587 35,000  Level FlightAware ADS-B
Sun 08:42:33 AM 49.6830 -5.0710 281° West 510 587 35,000  Level FlightAware ADS-B
Sun 08:43:15 AM 49.7015 -5.2219 281° West 478 550 35,000  Level FlightAware UK
Sun 08:43:16 AM 49.7010 -5.2230 281° West 511 588 35,000  Level FlightAware ADS-B
Sun 08:43:56 AM 49.7180 -5.3660 280° West 511 588 35,000  Level FlightAware ADS-B
Sun 08:44:41 AM 49.7370 -5.5270 280° West 512 589 35,000  Level FlightAware ADS-B
Sun 08:45:15 AM 49.7525 -5.6523 280° West 478 550 35,000  Level FlightAware UK
Sun 08:45:45 AM 49.7649 -5.7602 280° West 478 550 35,000  Level FlightAware UK
Sun 08:45:45 AM 49.7640 -5.7580 280° West 511 588 35,000  Level FlightAware ADS-B
Sun 08:46:15 AM 49.7771 -5.8681 280° West 478 550 35,000  Level FlightAware UK
Sun 08:46:19 AM 49.7780 -5.8810 280° West 511 588 35,000  Level FlightAware ADS-B
Sun 08:46:51 AM 49.7918 -5.9969 280° West 478 550 35,000  Level FlightAware UK
Sun 08:47:05 AM 49.7970 -6.0470 280° West 512 589 35,000  Level FlightAware ADS-B
Sun 08:47:45 AM 49.8130 -6.1910 280° West 512 589 35,000  Level FlightAware ADS-B
Sun 08:48:20 AM 49.8270 -6.3180 280° West 512 589 35,000  Level FlightAware ADS-B
Sun 08:48:51 AM 49.8399 -6.4291 280° West 478 550 35,000  Level FlightAware UK
Sun 08:49:00 AM 49.8430 -6.4630 280° West 513 590 35,000  Level FlightAware ADS-B
Sun 08:49:44 AM 49.8600 -6.6220 279° West 512 589 35,000  Level FlightAware ADS-B
Sun 08:50:21 AM 49.8749 -6.7543 279° West 478 550 35,000  Level FlightAware UK
Sun 08:50:25 AM 49.8760 -6.7660 279° West 512 589 35,000  Level FlightAware ADS-B
Sun 08:51:06 AM 49.8940 -6.9100 281° West 512 589 35,000  Level FlightAware ADS-B
Sun 08:51:49 AM 49.9220 -7.0640 286° West 512 589 35,000  Level FlightAware ADS-B
Sun 08:52:26 AM 49.9470 -7.2009 286° West 478 550 35,000  Level FlightAware UK
Sun 08:52:29 AM 49.9480 -7.2090 286° West 512 589 35,000  Level FlightAware ADS-B
Sun 08:53:13 AM 49.9730 -7.3580 285° West 512 589 35,000  Level FlightAware ADS-B
Sun 08:53:56 AM 49.9995 -7.5206 285° West 478 550 35,000  Level FlightAware UK
Sun 08:53:57 AM 49.9990 -7.5170 285° West 512 589 35,000  Level FlightAware ADS-B
Sun 08:54:37 AM 50.0220 -7.6620 284° West 511 588 35,000  Level FlightAware ADS-B
Sun 08:55:21 AM 50.0460 -7.8140 284° West 511 588 35,000  Level FlightAware ADS-B
Sun 08:55:56 AM 50.0676 -7.9485 284° West 478 550 35,000  Level FlightAware UK
Sun 08:56:01 AM 50.0690 -7.9580 284° West 512 589 35,000  Level FlightAware ADS-B
Sun 08:56:45 AM 50.0940 -8.1140 284° West 512 589 35,000  Level FlightAware ADS-B
Sun 08:57:21 AM 50.1160 -8.2460 285° West 512 589 35,000  Level FlightAware ADS-B
Sun 08:58:01 AM 50.1390 -8.3890 285° West 512 589 35,000  Level FlightAware ADS-B
Sun 08:58:02 AM 50.1408 -8.3968 285° West 478 550 35,000  Level FlightAware UK
Sun 08:58:32 AM 50.1580 -8.5039 285° West 478 550 35,000  Level FlightAware UK
Sun 08:58:46 AM 50.1660 -8.5510 285° West 511 588 35,000  Level FlightAware ADS-B
Sun 08:59:17 AM 50.1830 -8.6590 284° West 511 588 35,000  Level FlightAware ADS-B
Sun 08:59:53 AM 50.2030 -8.7870 284° West 511 588 35,000  Level FlightAware ADS-B
Sun 09:00:02 AM 50.2090 -8.8253 284° West 478 550 35,000  Level FlightAware UK
Sun 09:00:32 AM 50.2256 -8.9326 284° West 478 550 35,000  Level FlightAware UK
Sun 09:00:54 AM 50.2380 -9.0100 284° West 511 588 35,000  Level FlightAware ADS-B
Sun 09:01:28 AM 50.2530 -9.1130 283° West 511 588 35,000  Level FlightAware ADS-B
Sun 09:02:20 AM 50.2820 -9.2980 284° West 512 589 35,000  Level FlightAware ADS-B
Sun 09:02:59 AM 50.3060 -9.4540 284° West 512 589 35,000  Level FlightAware ADS-B
Sun 09:03:31 AM 50.3230 -9.5690 283° West 512 589 35,000  Level FlightAware ADS-B
Sun 09:04:13 AM 50.3440 -9.7070 283° West 513 590 35,000  Level FlightAware ADS-B
Sun 09:04:56 AM 50.3670 -9.8660 283° West 513 590 35,000  Level FlightAware ADS-B
Sun 09:05:33 AM 50.3840 -9.9800 283° West 513 590 35,000  Level FlightAware ADS-B
Sun 09:06:08 AM 50.4000 -10.0880 283° West 513 590 35,000  Level FlightAware ADS-B
Sun 09:06:56 AM 50.4220 -10.2360 283° West 513 590 35,000  Level FlightAware ADS-B
Sun 09:07:32 AM 50.4380 -10.3470 283° West 513 590 35,000  Level FlightAware ADS-B
Sun 09:08:21 AM 50.4600 -10.4980 283° West 513 590 35,000  Level FlightAware ADS-B
Sun 09:08:57 AM 50.4760 -10.6100 283° West 513 590 35,000  Level FlightAware ADS-B
Sun 09:09:43 AM 50.4970 -10.7520 283° West 513 590 35,000  Level FlightAware ADS-B
Sun 09:10:19 AM 50.5140 -10.8630 284° West 513 590 35,000  Level FlightAware ADS-B
Sun 09:10:55 AM 50.5300 -10.9740 283° West 513 590 35,000  Level FlightAware ADS-B
Sun 09:11:53 AM 50.5560 -11.1540 283° West 513 590 35,000  Level FlightAware ADS-B
Sun 09:12:32 AM 50.5740 -11.2740 283° West 513 590 35,000  Level FlightAware ADS-B
Sun 09:13:16 AM 50.6180 -11.6790 280° West 514 592 35,000  Level FlightAware ADS-B
Sun 09:14:02 AM 50.6350 -11.8230 281° West 514 592 35,000  Level FlightAware ADS-B
Sun 09:14:39 AM 50.6500 -11.9390 282° West 514 592 35,000  Level FlightAware ADS-B
Sun 09:15:27 AM 50.6680 -12.0890 281° West 514 592 35,000  Level FlightAware ADS-B
Sun 09:16:50 AM 50.7000 -12.3490 281° West 514 592 35,000  Level FlightAware ADS-B
Sun 09:17:26 AM 50.7140 -12.4620 281° West 514 592 35,000  Level FlightAware ADS-B
Sun 09:18:14 AM 50.7320 -12.6120 281° West 514 592 35,000  Level FlightAware ADS-B
Sun 09:18:50 AM 50.7460 -12.7250 281° West 514 592 35,000  Level FlightAware ADS-B
Sun 09:19:38 AM 50.7650 -12.8760 281° West 514 592 35,000  Level FlightAware ADS-B
Sun 09:20:14 AM 50.7790 -12.9890 281° West 514 592 35,000  Level FlightAware ADS-B
Sun 09:21:02 AM 50.7970 -13.1390 281° West 514 592 35,000  Level FlightAware ADS-B
Sun 09:21:39 AM 50.8110 -13.2550 281° West 514 592 35,000  Level FlightAware ADS-B
Sun 09:22:27 AM 50.8300 -13.4060 281° West 514 592 35,000 -33 Level FlightAware ADS-B
Sun 09:25:00 AM 50.9373 -13.8640 291° West  Level Estimated
Sun 09:26:00 AM 50.9789 -14.0442 290° West  Level Estimated
Sun 09:27:00 AM 51.0202 -14.2248 290° West  Level Estimated
Sun 09:28:00 AM 51.0612 -14.4056 290° West  Level Estimated
Sun 09:29:00 AM 51.1020 -14.5868 290° West  Level Estimated
Sun 09:30:00 AM 51.1424 -14.7683 290° West  Level Estimated
Sun 09:31:00 AM 51.1826 -14.9501 289° West  Level Estimated
Sun 09:32:00 AM 51.2225 -15.1322 289° West  Level Estimated
Sun 09:33:00 AM 51.2621 -15.3146 289° West  Level Estimated
Sun 09:34:00 AM 51.3015 -15.4973 289° West  Level Estimated
Sun 09:35:00 AM 51.3405 -15.6804 289° West  Level Estimated
Sun 09:36:00 AM 51.3793 -15.8638 289° West  Level Estimated
Sun 09:37:00 AM 51.4178 -16.0474 289° West  Level Estimated
Sun 09:38:00 AM 51.4560 -16.2314 288° West  Level Estimated
Sun 09:39:00 AM 51.5015 -16.4531 288° West  Level Estimated
Sun 09:40:00 AM 51.5467 -16.6753 288° West  Level Estimated
Sun 09:41:00 AM 51.5914 -16.8978 288° West  Level Estimated
Sun 09:42:00 AM 51.6357 -17.1209 288° West  Level Estimated
Sun 09:43:00 AM 51.6795 -17.3443 288° West  Level Estimated
Sun 09:44:00 AM 51.7230 -17.5682 287° West  Level Estimated
Sun 09:45:00 AM 51.7660 -17.7925 287° West  Level Estimated
Sun 09:46:00 AM 51.8086 -18.0172 287° West  Level Estimated
Sun 09:47:00 AM 51.8508 -18.2424 287° West  Level Estimated
Sun 09:48:00 AM 51.8925 -18.4680 287° West  Level Estimated
Sun 09:49:00 AM 51.9338 -18.6940 287° West  Level Estimated
Sun 09:50:00 AM 51.9747 -18.9204 286° West  Level Estimated
Sun 09:51:00 AM 52.0151 -19.1472 286° West  Level Estimated
Sun 09:52:00 AM 52.0551 -19.3744 286° West  Level Estimated
Sun 09:52:00 AM 50.0000 -20.0000 265° West 525 604 34,000  Level ETMS Enhanced Traffic Management System
Sun 09:52:53 AM 50.0000 -20.0000 265° West 525 604 34,000  Level ETMS Enhanced Traffic Management System
Sun 09:53:00 AM 52.0947 -19.6021 286° West  Level Estimated
Sun 09:54:00 AM 52.1338 -19.8301 286° West  Level Estimated
Sun 09:55:00 AM 52.1725 -20.0585 286° West  Level Estimated
Sun 09:56:00 AM 52.2107 -20.2874 285° West  Level Estimated
Sun 09:57:00 AM 52.2485 -20.5166 285° West  Level Estimated
Sun 09:58:00 AM 49.9016 -21.5800 264° West 525 604 34,000  Level FlightAware Transoceanic
Sun 09:59:00 AM 49.8858 -21.8051 264° West 525 604 34,000  Level FlightAware Transoceanic
Sun 10:00:00 AM 49.8695 -22.0301 264° West 525 604 34,000  Level FlightAware Transoceanic
Sun 10:01:00 AM 49.8528 -22.2550 263° West 525 604 34,000  Level FlightAware Transoceanic
Sun 10:02:00 AM 49.8357 -22.4797 263° West 525 604 34,000  Level FlightAware Transoceanic
Sun 10:03:00 AM 49.8182 -22.7042 263° West 525 604 34,000  Level FlightAware Transoceanic
Sun 10:04:00 AM 49.8002 -22.9286 263° West 525 604 34,000  Level FlightAware Transoceanic
Sun 10:05:00 AM 49.7818 -23.1528 263° West 525 604 34,000  Level FlightAware Transoceanic
Sun 10:06:00 AM 49.7629 -23.3768 262° West 525 604 34,000  Level FlightAware Transoceanic
Sun 10:07:00 AM 49.7436 -23.6007 262° West 525 604 34,000  Level FlightAware Transoceanic
Sun 10:08:00 AM 49.7239 -23.8244 262° West 525 604 34,000  Level FlightAware Transoceanic
Sun 10:09:00 AM 49.7038 -24.0479 262° West 525 604 34,000  Level FlightAware Transoceanic
Sun 10:10:00 AM 49.6832 -24.2712 262° West 525 604 34,000  Level FlightAware Transoceanic
Sun 10:11:00 AM 49.6622 -24.4943 262° West 525 604 34,000  Level FlightAware Transoceanic
Sun 10:12:00 AM 49.6408 -24.7172 261° West 525 604 34,000  Level FlightAware Transoceanic
Sun 10:13:00 AM 49.6189 -24.9399 261° West 525 604 34,000  Level FlightAware Transoceanic
Sun 10:14:00 AM 49.5966 -25.1625 261° West 525 604 34,000  Level FlightAware Transoceanic
Sun 10:15:00 AM 49.5739 -25.3848 261° West 525 604 34,000  Level FlightAware Transoceanic
Sun 10:16:00 AM 49.5508 -25.6069 261° West 525 604 34,000  Level FlightAware Transoceanic
Sun 10:17:00 AM 49.5272 -25.8288 261° West 525 604 34,000  Level FlightAware Transoceanic
Sun 10:18:00 AM 49.5033 -26.0504 260° West 525 604 34,000  Level FlightAware Transoceanic
Sun 10:19:00 AM 49.4788 -26.2719 260° West 525 604 34,000  Level FlightAware Transoceanic
Sun 10:20:00 AM 49.4540 -26.4932 260° West 525 604 34,000  Level FlightAware Transoceanic
Sun 10:21:00 AM 49.4288 -26.7142 260° West 525 604 34,000  Level FlightAware Transoceanic
Sun 10:22:00 AM 49.4031 -26.9349 260° West 525 604 34,000  Level FlightAware Transoceanic
Sun 10:23:00 AM 49.3770 -27.1555 260° West 525 604 34,000  Level FlightAware Transoceanic
Sun 10:24:00 AM 49.3505 -27.3758 259° West 525 604 34,000  Level FlightAware Transoceanic
Sun 10:25:00 AM 49.3236 -27.5959 259° West 525 604 34,000  Level FlightAware Transoceanic
Sun 10:26:00 AM 49.2962 -27.8157 259° West 525 604 34,000  Level FlightAware Transoceanic
Sun 10:27:00 AM 49.2685 -28.0353 259° West 525 604 34,000  Level FlightAware Transoceanic
Sun 10:28:00 AM 49.2403 -28.2546 259° West 525 604 34,000  Level FlightAware Transoceanic
Sun 10:29:00 AM 49.2117 -28.4737 259° West 525 604 34,000  Level FlightAware Transoceanic
Sun 10:30:00 AM 49.1827 -28.6926 258° West 525 604 34,000  Level FlightAware Transoceanic
Sun 10:31:00 AM 49.1533 -28.9111 258° West 525 604 34,000  Level FlightAware Transoceanic
Sun 10:32:00 AM 49.1234 -29.1294 258° West 525 604 34,000  Level FlightAware Transoceanic
Sun 10:33:00 AM 49.0932 -29.3475 258° West 525 604 34,000  Level FlightAware Transoceanic
Sun 10:34:00 AM 49.0625 -29.5653 258° West 525 604 34,000  Level FlightAware Transoceanic
Sun 10:35:00 AM 49.0315 -29.7828 258° West 525 604 34,000  Level FlightAware Transoceanic
Sun 10:36:00 AM 49.0001 -29.9992 258° West  Level FlightAware Approximate
Sun 10:37:00 AM 48.9690 -30.2156 258° West  Level FlightAware Approximate
Sun 10:38:00 AM 48.9663 -30.2139 257° West  Level FlightAware Approximate
Sun 10:39:00 AM 48.9320 -30.4291 256° West  Level FlightAware Approximate
Sun 10:40:00 AM 48.8973 -30.6439 256° West  Level FlightAware Approximate
Sun 10:41:00 AM 48.8622 -30.8585 256° West  Level FlightAware Approximate
Sun 10:42:00 AM 48.8284 -31.0626 256° West  Level FlightAware Approximate
Sun 10:43:00 AM 48.7942 -31.2665 256° West  Level FlightAware Approximate
Sun 10:44:00 AM 48.7597 -31.4701 256° West  Level FlightAware Approximate
Sun 10:45:00 AM 48.7248 -31.6734 255° West  Level FlightAware Approximate
Sun 10:46:00 AM 48.6895 -31.8765 255° West  Level FlightAware Approximate
Sun 10:47:00 AM 48.6539 -32.0792 255° West  Level FlightAware Approximate
Sun 10:48:00 AM 48.6180 -32.2817 255° West  Level FlightAware Approximate
Sun 10:49:00 AM 48.5817 -32.4838 255° West  Level FlightAware Approximate
Sun 10:50:00 AM 48.5468 -32.6865 256° West  Level FlightAware Approximate
Sun 10:51:00 AM 48.5130 -32.8893 256° West  Level FlightAware Approximate
Sun 10:52:00 AM 48.4787 -33.0919 256° West  Level FlightAware Approximate
Sun 10:53:00 AM 48.4441 -33.2942 256° West  Level FlightAware Approximate
Sun 10:54:00 AM 48.4092 -33.4963 255° West  Level FlightAware Approximate
Sun 10:55:00 AM 48.3739 -33.6980 255° West  Level FlightAware Approximate
Sun 10:56:00 AM 48.3377 -33.8993 254° West  Level FlightAware Approximate
Sun 10:57:00 AM 48.2998 -34.0997 254° West  Level FlightAware Approximate
Sun 10:58:00 AM 48.2617 -34.2998 254° West  Level FlightAware Approximate
Sun 10:59:00 AM 48.2232 -34.4997 254° West  Level FlightAware Approximate
Sun 11:00:00 AM 48.1843 -34.6992 254° West  Level FlightAware Approximate
Sun 11:01:00 AM 48.1451 -34.8984 254° West  Level FlightAware Approximate
Sun 11:02:00 AM 48.1056 -35.0974 253° West  Level FlightAware Approximate
Sun 11:03:00 AM 48.0657 -35.2960 253° West  Level FlightAware Approximate
Sun 11:04:00 AM 48.0255 -35.4943 253° West  Level FlightAware Approximate
Sun 11:05:00 AM 47.9849 -35.6923 253° West  Level FlightAware Approximate
Sun 11:06:00 AM 47.9440 -35.8900 253° West  Level FlightAware Approximate
Sun 11:07:00 AM 47.9028 -36.0874 253° West  Level FlightAware Approximate
Sun 11:08:00 AM 47.8612 -36.2844 253° West  Level FlightAware Approximate
Sun 11:09:00 AM 47.8193 -36.4812 252° West  Level FlightAware Approximate
Sun 11:10:00 AM 47.7770 -36.6776 252° West  Level FlightAware Approximate
Sun 11:11:00 AM 47.7345 -36.8737 252° West  Level FlightAware Approximate
Sun 11:12:00 AM 47.6915 -37.0695 252° West  Level FlightAware Approximate
Sun 11:13:00 AM 47.6483 -37.2649 252° West  Level FlightAware Approximate
Sun 11:14:00 AM 47.6047 -37.4601 252° West  Level FlightAware Approximate
Sun 11:15:00 AM 47.5608 -37.6549 252° West  Level FlightAware Approximate
Sun 11:16:00 AM 47.5165 -37.8493 251° West  Level FlightAware Approximate
Sun 11:17:00 AM 47.4720 -38.0435 251° West  Level FlightAware Approximate
Sun 11:18:00 AM 47.4271 -38.2373 251° West  Level FlightAware Approximate
Sun 11:19:00 AM 47.3818 -38.4308 251° West  Level FlightAware Approximate
Sun 11:20:00 AM 47.3363 -38.6240 251° West  Level FlightAware Approximate
Sun 11:21:00 AM 47.2904 -38.8168 251° West  Level FlightAware Approximate
Sun 11:22:00 AM 47.2442 -39.0093 251° West  Level FlightAware Approximate
Sun 11:23:00 AM 47.1977 -39.2014 250° West  Level FlightAware Approximate
Sun 11:24:00 AM 47.1508 -39.3932 250° West  Level FlightAware Approximate
Sun 11:25:00 AM 47.1037 -39.5847 250° West  Level FlightAware Approximate
Sun 11:26:00 AM 47.0562 -39.7758 250° West  Level FlightAware Approximate
Sun 11:27:00 AM 47.0084 -39.9666 250° West  Level FlightAware Approximate
Sun 11:28:00 AM 46.9742 -40.1632 257° West  Level FlightAware Approximate
Sun 11:29:00 AM 46.9425 -40.3608 257° West  Level FlightAware Approximate
Sun 11:30:00 AM 46.9106 -40.5578 257° West  Level FlightAware Approximate
Sun 11:31:00 AM 46.8784 -40.7546 257° West  Level FlightAware Approximate
Sun 11:32:00 AM 46.8458 -40.9511 256° West  Level FlightAware Approximate
Sun 11:33:00 AM 46.8129 -41.1475 256° West  Level FlightAware Approximate
Sun 11:34:00 AM 46.7796 -41.3435 256° West  Level FlightAware Approximate
Sun 11:35:00 AM 46.7460 -41.5393 256° West  Level FlightAware Approximate
Sun 11:36:00 AM 46.7121 -41.7349 256° West  Level FlightAware Approximate
Sun 11:37:00 AM 46.6778 -41.9302 256° West  Level FlightAware Approximate
Sun 11:38:00 AM 46.6433 -42.1253 256° West  Level FlightAware Approximate
Sun 11:39:00 AM 46.6083 -42.3202 255° West  Level FlightAware Approximate
Sun 11:40:00 AM 46.5731 -42.5147 255° West  Level FlightAware Approximate
Sun 11:41:00 AM 46.5391 -42.7097 256° West  Level FlightAware Approximate
Sun 11:42:00 AM 46.5052 -42.9045 256° West  Level FlightAware Approximate
Sun 11:43:00 AM 46.4709 -43.0991 256° West  Level FlightAware Approximate
Sun 11:44:00 AM 46.4363 -43.2934 256° West  Level FlightAware Approximate
Sun 11:45:00 AM 46.4014 -43.4875 255° West  Level FlightAware Approximate
Sun 11:46:00 AM 46.3662 -43.6813 255° West  Level FlightAware Approximate
Sun 11:47:00 AM 46.3306 -43.8749 255° West  Level FlightAware Approximate
Sun 11:48:00 AM 46.2947 -44.0682 255° West  Level FlightAware Approximate
Sun 11:49:00 AM 46.2584 -44.2613 255° West  Level FlightAware Approximate
Sun 11:50:00 AM 46.2219 -44.4542 255° West  Level FlightAware Approximate
Sun 11:51:00 AM 46.1850 -44.6467 255° West  Level FlightAware Approximate
Sun 11:52:00 AM 46.1478 -44.8390 254° West  Level FlightAware Approximate
Sun 11:53:00 AM 46.1103 -45.0311 254° West  Level FlightAware Approximate
Sun 11:54:00 AM 46.0723 -45.2228 254° West  Level FlightAware Approximate
Sun 11:55:00 AM 46.0339 -45.4142 254° West  Level FlightAware Approximate
Sun 11:56:00 AM 45.9951 -45.6053 254° West  Level FlightAware Approximate
Sun 11:57:00 AM 45.9561 -45.7962 254° West  Level FlightAware Approximate
Sun 11:58:00 AM 45.9168 -45.9869 254° West  Level FlightAware Approximate
Sun 11:59:00 AM 45.8771 -46.1772 253° West  Level FlightAware Approximate
Sun 12:00:00 PM 45.8371 -46.3673 253° West  Level FlightAware Approximate
Sun 12:01:00 PM 45.7968 -46.5571 253° West  Level FlightAware Approximate
Sun 12:02:00 PM 45.7562 -46.7466 253° West  Level FlightAware Approximate
Sun 12:03:00 PM 45.7153 -46.9358 253° West  Level FlightAware Approximate
Sun 12:04:00 PM 45.6740 -47.1248 253° West  Level FlightAware Approximate
Sun 12:05:00 PM 45.6325 -47.3135 253° West  Level FlightAware Approximate
Sun 12:06:00 PM 45.5906 -47.5019 252° West  Level FlightAware Approximate
Sun 12:07:00 PM 45.5485 -47.6900 252° West  Level FlightAware Approximate
Sun 12:08:00 PM 45.5060 -47.8779 252° West  Level FlightAware Approximate
Sun 12:09:00 PM 45.4632 -48.0654 252° West  Level FlightAware Approximate
Sun 12:10:00 PM 45.4201 -48.2527 252° West  Level FlightAware Approximate
Sun 12:11:00 PM 45.3767 -48.4397 252° West  Level FlightAware Approximate
Sun 12:12:00 PM 45.3330 -48.6264 252° West  Level FlightAware Approximate
Sun 12:13:00 PM 45.2890 -48.8128 252° West  Level FlightAware Approximate
Sun 12:14:00 PM 45.2447 -48.9989 251° West  Level FlightAware Approximate
Sun 12:15:00 PM 45.2001 -49.1848 251° West  Level FlightAware Approximate
Sun 12:16:00 PM 45.1552 -49.3703 251° West  Level FlightAware Approximate
Sun 12:17:00 PM 45.1100 -49.5555 251° West  Level FlightAware Approximate
Sun 12:18:00 PM 45.0645 -49.7405 251° West  Level FlightAware Approximate
Sun 12:18:17 PM 45.1833 -49.0667 264° West 480 552 34,000  Level Gander Center
Sun 12:19:00 PM 45.0187 -49.9251 251° West  Level FlightAware Approximate
Sun 12:19:17 PM 45.1667 -49.2500 263° West 480 552 34,000  Level Gander Center
Sun 12:20:00 PM 44.9923 -50.1157 265° West  Level FlightAware Approximate
Sun 12:20:17 PM 45.1167 -49.4167 247° West 500 575 34,000  Level Gander Center
Sun 12:21:00 PM 44.9791 -50.3103 265° West  Level FlightAware Approximate
Sun 12:21:17 PM 45.0667 -49.6167 251° West 510 587 34,000  Level Gander Center
Sun 12:22:00 PM 44.9655 -50.5048 264° West  Level FlightAware Approximate
Sun 12:23:00 PM 44.9516 -50.6992 264° West  Level FlightAware Approximate
Sun 12:23:17 PM 44.9667 -50.0000 250° West 550 633 34,000  Level Gander Center
Sun 12:24:17 PM 44.9667 -50.1833 270° West 510 587 34,000  Level Gander Center
Sun 12:25:17 PM 44.9500 -50.4000 264° West 510 587 34,000  Level Gander Center
Sun 12:26:17 PM 44.9500 -50.5667 270° West 500 575 34,000  Level Gander Center
Sun 12:27:17 PM 44.9333 -50.7667 263° West 510 587 34,000  Level Gander Center
Sun 12:28:17 PM 44.9167 -50.9833 264° West 530 610 34,000  Level Gander Center
Sun 12:29:17 PM 44.9000 -51.1667 263° West 490 564 34,000  Level Gander Center
Sun 12:30:17 PM 44.8833 -51.3667 263° West 480 552 34,000  Level Gander Center
Sun 12:31:17 PM 44.8833 -51.5333 270° West 480 552 34,000  Level Gander Center
Sun 12:32:17 PM 44.8833 -51.7333 270° West 480 552 34,000  Level Gander Center
Sun 12:33:17 PM 44.8833 -51.9000 270° West 480 552 34,000  Level Gander Center
Sun 12:34:17 PM 44.8667 -52.1167 264° West 480 552 34,000  Level Gander Center
Sun 12:34:48 PM 44.8667 -52.2167 270° West 490 564 34,000  Level Moncton Center
Sun 12:35:48 PM 44.8667 -52.3833 270° West 480 552 34,000  Level Moncton Center
Sun 12:36:48 PM 44.8667 -52.6000 270° West 480 552 34,000 250 Level Moncton Center
Sun 12:37:48 PM 44.8667 -52.7667 270° West 480 552 34,500 500 Climbing Moncton Center
Sun 12:38:48 PM 44.8500 -52.9833 264° West 480 552 35,000 250 Climbing Moncton Center
Sun 12:39:48 PM 44.8500 -53.1500 270° West 470 541 35,000  Level Moncton Center
Sun 12:40:48 PM 44.8333 -53.3333 263° West 480 552 35,000  Level Moncton Center
Sun 12:41:48 PM 44.8333 -53.5333 270° West 470 541 35,000  Level Moncton Center
Sun 12:42:48 PM 44.8167 -53.7000 262° West 480 552 35,000  Level Moncton Center
Sun 12:43:48 PM 44.8333 -53.9167 276° West 470 541 35,000  Level Moncton Center
Sun 12:44:48 PM 44.8167 -54.0833 262° West 470 541 35,000  Level Moncton Center
Sun 12:45:48 PM 44.8167 -54.2667 270° West 470 541 35,000  Level Moncton Center
Sun 12:46:48 PM 44.8000 -54.4667 263° West 470 541 35,000  Level Moncton Center
Sun 12:47:48 PM 44.8000 -54.6333 270° West 480 552 35,000  Level Moncton Center
Sun 12:48:48 PM 44.8000 -54.8167 270° West 480 552 35,000  Level Moncton Center
Sun 12:49:48 PM 44.7667 -55.0167 257° West 470 541 35,000  Level Moncton Center
Sun 12:55:40 PM 44.7340 -56.1360 257° West 471 542 35,000  Level FlightAware ADS-B
Sun 12:56:30 PM 44.7260 -56.2650 265° West 471 542 35,000  Level FlightAware ADS-B
Sun 12:57:38 PM 44.7140 -56.4680 265° West 470 541 35,000  Level FlightAware ADS-B
Sun 12:58:14 PM 44.7080 -56.5610 265° West 470 541 35,000  Level FlightAware ADS-B
Sun 12:59:00 PM 44.6970 -56.7410 265° West 469 540 35,000  Level FlightAware ADS-B
Sun 12:59:38 PM 44.6900 -56.8540 265° West 470 541 35,000  Level FlightAware ADS-B
Sun 01:00:18 PM 44.6820 -56.9580 264° West 470 541 35,000  Level FlightAware ADS-B
Sun 01:01:07 PM 44.6720 -57.0840 264° West 470 541 35,000  Level FlightAware ADS-B
Sun 01:01:43 PM 44.6650 -57.1780 264° West 470 541 35,000  Level FlightAware ADS-B
Sun 01:02:32 PM 44.6560 -57.3040 264° West 470 541 35,000  Level FlightAware ADS-B
Sun 01:03:08 PM 44.6490 -57.3970 264° West 470 541 35,000  Level FlightAware ADS-B
Sun 01:03:44 PM 44.6420 -57.4900 264° West 470 541 35,000  Level FlightAware ADS-B
Sun 01:04:44 PM 44.6260 -57.7810 266° West 469 540 35,000  Level FlightAware ADS-B
Sun 01:05:20 PM 44.6180 -57.8900 264° West 471 542 35,000  Level FlightAware ADS-B
Sun 01:06:00 PM 44.6090 -58.0120 264° West 472 543 35,000  Level FlightAware ADS-B
Sun 01:06:46 PM 44.5980 -58.1390 263° West 473 544 35,000  Level FlightAware ADS-B
Sun 01:07:24 PM 44.5890 -58.2680 264° West 474 545 35,000  Level FlightAware ADS-B
Sun 01:08:06 PM 44.5790 -58.3950 264° West 474 545 35,000  Level FlightAware ADS-B
Sun 01:08:50 PM 44.5690 -58.5280 264° West 474 545 35,000  Level FlightAware ADS-B
Sun 01:09:30 PM 44.5590 -58.6520 264° West 474 545 35,000  Level FlightAware ADS-B
Sun 01:10:10 PM 44.5490 -58.7750 264° West 474 545 35,000  Level FlightAware ADS-B
Sun 01:10:48 PM 44.5390 -58.8910 263° West 474 545 35,000  Level FlightAware ADS-B
Sun 01:11:30 PM 44.5290 -59.0160 264° West 474 545 35,000  Level FlightAware ADS-B
Sun 01:12:07 PM 44.5190 -59.1270 263° West 475 547 35,000  Level FlightAware ADS-B
Sun 01:12:54 PM 44.5070 -59.2750 264° West 474 545 35,000  Level FlightAware ADS-B
Sun 01:13:38 PM 44.4960 -59.4020 263° West 474 545 35,000  Level FlightAware ADS-B
Sun 01:14:18 PM 44.4840 -59.5280 262° West 474 545 35,000  Level FlightAware ADS-B
Sun 01:15:00 PM 44.4730 -59.6540 263° West 474 545 35,000  Level FlightAware ADS-B
Sun 01:15:36 PM 44.4630 -59.7670 263° West 473 544 35,000  Level FlightAware ADS-B
Sun 01:16:16 PM 44.4520 -59.8870 263° West 473 544 35,000  Level FlightAware ADS-B
Sun 01:17:00 PM 44.4400 -60.0220 263° West 473 544 35,000  Level FlightAware ADS-B
Sun 01:17:35 PM 44.4300 -60.1130 261° West 473 544 35,000  Level FlightAware ADS-B
Sun 01:18:20 PM 44.4170 -60.2600 263° West 474 545 35,000  Level FlightAware ADS-B
Sun 01:18:58 PM 44.4070 -60.3630 262° West 474 545 35,000  Level FlightAware ADS-B
Sun 01:19:47 PM 44.3940 -60.4900 262° West 474 545 35,000  Level FlightAware ADS-B
Sun 01:20:23 PM 44.3850 -60.5830 262° West 474 545 35,000  Level FlightAware ADS-B
Sun 01:21:12 PM 44.3720 -60.7090 262° West 474 545 35,000  Level FlightAware ADS-B
Sun 01:21:48 PM 44.3630 -60.8020 262° West 474 545 35,000  Level FlightAware ADS-B
Sun 01:22:37 PM 44.3500 -60.9290 262° West 474 545 35,000  Level FlightAware ADS-B
Sun 01:23:13 PM 44.3400 -61.0220 261° West 474 545 35,000  Level FlightAware ADS-B
Sun 01:24:01 PM 44.3280 -61.1460 262° West 474 545 35,000  Level FlightAware ADS-B
Sun 01:24:37 PM 44.3190 -61.2380 262° West 474 545 35,000  Level FlightAware ADS-B
Sun 01:25:25 PM 44.3060 -61.3620 262° West 474 545 35,000  Level FlightAware ADS-B
Sun 01:26:02 PM 44.2970 -61.4580 263° West 474 545 35,000  Level FlightAware ADS-B
Sun 01:26:50 PM 44.2840 -61.5820 262° West 474 545 35,000  Level FlightAware ADS-B
Sun 01:27:24 PM 44.2750 -61.6690 262° West 474 545 35,000  Level FlightAware ADS-B
Sun 01:28:11 PM 44.2310 -62.0530 261° West 35,000  Level FlightAware ADS-B
Sun 01:29:22 PM 44.2090 -62.2550 261° West 477 549 35,000  Level FlightAware ADS-B
Sun 01:31:45 PM 44.1580 -62.6910 261° West 476 548 35,000  Level FlightAware ADS-B
Sun 01:32:27 PM 44.1440 -62.8130 261° West 475 547 35,000  Level FlightAware ADS-B
Sun 01:33:08 PM 44.1280 -62.9410 260° West 473 544 35,000  Level FlightAware ADS-B
Sun 01:33:44 PM 44.1160 -63.0470 261° West 472 543 35,000  Level FlightAware ADS-B
Sun 01:34:30 PM 44.0990 -63.1820 260° West 471 542 35,000  Level FlightAware ADS-B
Sun 01:35:19 PM 44.0810 -63.3310 261° West 469 540 35,000  Level FlightAware ADS-B
Sun 01:36:09 PM 44.0630 -63.4800 261° West 469 540 35,000  Level FlightAware ADS-B
Sun 01:36:46 PM 44.0490 -63.5870 260° West 469 540 35,000  Level FlightAware ADS-B
Sun 01:37:31 PM 44.0320 -63.7220 260° West 469 540 35,000  Level FlightAware ADS-B
Sun 01:38:21 PM 44.0130 -63.8740 260° West 469 540 35,000  Level FlightAware ADS-B
Sun 01:39:03 PM 43.9980 -63.9870 260° West 469 540 35,000  Level FlightAware ADS-B
Sun 01:39:43 PM 43.9810 -64.1180 260° West 472 543 35,000  Level FlightAware ADS-B
Sun 01:40:24 PM 43.9670 -64.2290 260° West 472 543 35,000  Level FlightAware ADS-B
Sun 01:41:17 PM 43.9450 -64.3920 259° West 472 543 35,000  Level FlightAware ADS-B
Sun 01:41:57 PM 43.9320 -64.4860 259° West 472 543 35,000  Level FlightAware ADS-B
Sun 01:42:48 PM 43.9080 -64.6660 260° West 471 542 35,000  Level FlightAware ADS-B
Sun 01:43:18 PM 43.8960 -64.7550 259° West 471 542 35,000  Level FlightAware ADS-B
Sun 01:43:59 PM 43.8790 -64.8750 259° West 472 543 35,000  Level FlightAware ADS-B
Sun 01:44:43 PM 43.8600 -65.0120 259° West 473 544 35,000  Level FlightAware ADS-B
Sun 01:46:33 PM 43.8200 -65.2970 259° West 474 545 35,000  Level FlightAware ADS-B
Sun 01:47:18 PM 43.7950 -65.4750 259° West 475 547 35,000  Level FlightAware ADS-B
Sun 01:47:54 PM 43.7790 -65.5820 258° West 476 548 35,000  Level FlightAware ADS-B
Sun 01:48:33 PM 43.7630 -65.6980 259° West 476 548 35,000  Level FlightAware ADS-B
Sun 01:49:14 PM 43.7450 -65.8190 258° West 480 552 35,000  Level FlightAware ADS-B
Sun 01:49:54 PM 43.7270 -65.9380 258° West 481 554 35,000  Level FlightAware ADS-B
Sun 01:50:30 PM 43.7110 -66.0460 258° West 483 556 35,000  Level FlightAware ADS-B
Sun 01:51:14 PM 43.6910 -66.1810 258° West 485 558 35,000  Level FlightAware ADS-B
Sun 01:51:53 PM 43.6750 -66.2900 259° West 486 559 35,000  Level FlightAware ADS-B
Sun 01:52:39 PM 43.6520 -66.4420 258° West 486 559 35,000  Level FlightAware ADS-B
Sun 01:53:18 PM 43.6340 -66.5590 258° West 487 560 35,000  Level FlightAware ADS-B
Sun 01:54:18 PM 43.6070 -66.7330 258° West 487 560 35,000  Level FlightAware ADS-B
Sun 01:54:38 PM 43.5970 -66.7960 258° West 487 560 35,000  Level FlightAware ADS-B
Sun 01:55:19 PM 43.5770 -66.9250 258° West 487 560 35,000  Level FlightAware ADS-B
Sun 01:56:02 PM 43.5650 -67.0480 262° West 484 557 35,000  Level FlightAware ADS-B
Sun 01:56:37 PM 43.5630 -67.1500 268° West 484 557 35,000  Level FlightAware ADS-B
Sun 01:57:24 PM 43.5630 -67.3020 270° West 484 557 35,000  Level FlightAware ADS-B
Sun 01:58:08 PM 43.5630 -67.4460 270° West 483 556 35,000  Level FlightAware ADS-B
Sun 01:58:44 PM 43.5620 -67.5510 269° West 482 555 35,000  Level FlightAware ADS-B
Sun 01:59:33 PM 43.5610 -67.6990 270° West 482 555 35,000  Level FlightAware ADS-B
Sun 01:59:54 PM 43.5600 -67.7690 269° West 481 554 35,000  Level FlightAware ADS-B
Sun 02:01:19 PM 43.5580 -68.0190 269° West 480 552 35,000  Level FlightAware ADS-B
Sun 02:02:27 PM 43.5560 -68.2200 269° West 479 551 35,000  Level FlightAware ADS-B
Sun 02:03:04 PM 43.5560 -68.3170 270° West 479 551 35,000  Level FlightAware ADS-B
Sun 02:03:52 PM 43.5560 -68.4410 270° West 479 551 35,000  Level FlightAware ADS-B
Sun 02:04:28 PM 43.5560 -68.5350 270° West 479 551 35,000  Level FlightAware ADS-B
Sun 02:05:16 PM 43.5560 -68.6600 270° West 479 551 35,000  Level FlightAware ADS-B
Sun 02:06:04 PM 43.5560 -68.7840 270° West 479 551 35,000 -723 Level FlightAware ADS-B
Sun 02:06:39 PM 43.5410 -69.0030 265° West 483 556 34,000 -822 Descending FlightAware ADS-B
Sun 02:07:17 PM 43.5380 -69.1240 268° West 484 557 34,000  Level FlightAware ADS-B
Sun 02:08:00 PM 43.5350 -69.2430 268° West 485 558 34,000  Level FlightAware ADS-B
Sun 02:08:40 PM 43.5320 -69.3730 268° West 486 559 34,000  Level FlightAware ADS-B
Sun 02:09:25 PM 43.5290 -69.5110 268° West 487 560 34,000  Level FlightAware ADS-B
Sun 02:10:35 PM 43.5230 -69.7210 268° West 488 562 34,000  Level FlightAware ADS-B
Sun 02:11:47 PM 43.5170 -69.9570 268° West 488 562 34,000  Level FlightAware ADS-B
Sun 02:12:27 PM 43.5130 -70.0810 267° West 488 562 34,000  Level FlightAware ADS-B
Sun 02:13:07 PM 43.5090 -70.2050 267° West 488 562 34,000  Level FlightAware ADS-B
Sun 02:13:51 PM 43.5050 -70.3420 268° West 487 560 34,000  Level FlightAware ADS-B
Sun 02:14:35 PM 43.5010 -70.4750 268° West 488 562 34,000  Level FlightAware ADS-B
Sun 02:15:03 PM 43.4980 -70.5620 267° West 488 562 34,000  Level FlightAware ADS-B
Sun 02:15:43 PM 43.4930 -70.6870 267° West 489 563 34,000  Level FlightAware ADS-B
Sun 02:16:28 PM 43.4880 -70.8270 267° West 490 564 34,000  Level FlightAware ADS-B
Sun 02:17:08 PM 43.4830 -70.9530 267° West 491 565 34,000  Level FlightAware ADS-B
Sun 02:17:48 PM 43.4790 -71.0770 267° West 492 566 34,000  Level FlightAware ADS-B
Sun 02:18:32 PM 43.4730 -71.2140 267° West 493 567 34,000  Level FlightAware ADS-B
Sun 02:19:08 PM 43.4690 -71.3270 267° West 493 567 34,000  Level FlightAware ADS-B
Sun 02:19:56 PM 43.4620 -71.4760 266° West 495 570 34,000  Level FlightAware ADS-B
Sun 02:20:36 PM 43.4570 -71.6020 267° West 495 570 34,000  Level FlightAware ADS-B
Sun 02:21:20 PM 43.4510 -71.7410 267° West 496 571 34,000  Level FlightAware ADS-B
Sun 02:21:56 PM 43.4460 -71.8540 267° West 496 571 34,000  Level FlightAware ADS-B
Sun 02:22:38 PM 43.4390 -71.9880 266° West 497 572 34,000  Level FlightAware ADS-B
Sun 02:23:20 PM 43.4330 -72.1190 266° West 497 572 34,000  Level FlightAware ADS-B
Sun 02:24:02 PM 43.4270 -72.2510 266° West 497 572 34,000  Level FlightAware ADS-B
Sun 02:24:34 PM 43.4220 -72.3530 266° West 497 572 34,000  Level FlightAware ADS-B
Sun 02:25:06 PM 43.4170 -72.4490 266° West 497 572 34,000  Level FlightAware ADS-B
Sun 02:25:46 PM 43.4100 -72.5760 266° West 497 572 34,000  Level FlightAware ADS-B
Sun 02:26:32 PM 43.4030 -72.7180 266° West 496 571 34,000  Level FlightAware ADS-B
Sun 02:27:18 PM 43.3950 -72.8610 266° West 496 571 34,000  Level FlightAware ADS-B
Sun 02:27:58 PM 43.3880 -72.9870 266° West 495 570 34,000  Level FlightAware ADS-B
Sun 02:28:33 PM 43.3820 -73.0890 265° West 494 568 34,000  Level FlightAware ADS-B
Sun 02:29:18 PM 43.3740 -73.2360 266° West 494 568 34,000  Level FlightAware ADS-B
Sun 02:29:58 PM 43.3660 -73.3620 265° West 494 568 34,000  Level FlightAware ADS-B
Sun 02:30:28 PM 43.3610 -73.4470 265° West 494 568 34,000  Level FlightAware ADS-B
Sun 02:31:28 PM 43.3500 -73.6410 266° West 495 570 34,000  Level FlightAware ADS-B
Sun 02:32:08 PM 43.3420 -73.7700 265° West 496 571 34,000  Level FlightAware ADS-B
Sun 02:32:53 PM 43.3320 -73.9150 265° West 497 572 34,000  Level FlightAware ADS-B
Sun 02:33:36 PM 43.3240 -74.0500 265° West 498 573 34,000  Level FlightAware ADS-B
Sun 02:34:12 PM 43.3160 -74.1640 265° West 499 574 34,000  Level FlightAware ADS-B
Sun 02:35:00 PM 43.3060 -74.3140 265° West 500 575 34,000  Level FlightAware ADS-B
Sun 02:35:34 PM 43.2990 -74.4230 265° West 500 575 34,000  Level FlightAware ADS-B
Sun 02:36:12 PM 43.2900 -74.5410 264° West 500 575 34,000  Level FlightAware ADS-B
Sun 02:37:00 PM 43.2800 -74.6920 265° West 500 575 34,000  Level FlightAware ADS-B
Sun 02:37:40 PM 43.2710 -74.8190 264° West 499 574 34,000  Level FlightAware ADS-B
Sun 02:38:21 PM 43.2620 -74.9460 264° West 499 574 34,000  Level FlightAware ADS-B
Sun 02:39:04 PM 43.2510 -75.0830 264° West 499 574 34,000  Level FlightAware ADS-B
Sun 02:39:40 PM 43.2430 -75.1960 264° West 499 574 34,000  Level FlightAware ADS-B
Sun 02:40:28 PM 43.2310 -75.3480 264° West 500 575 34,000  Level FlightAware ADS-B
Sun 02:40:59 PM 43.2240 -75.4430 264° West 500 575 34,000  Level FlightAware ADS-B
Sun 02:41:40 PM 43.2140 -75.5730 264° West 500 575 34,000  Level FlightAware ADS-B
Sun 02:42:21 PM 43.2040 -75.7000 264° West 500 575 34,000  Level FlightAware ADS-B
Sun 02:43:02 PM 43.1930 -75.8330 264° West 499 574 34,000  Level FlightAware ADS-B
Sun 02:43:40 PM 43.1830 -75.9500 263° West 498 573 34,000  Level FlightAware ADS-B
Sun 02:44:26 PM 43.1720 -76.0920 264° West 497 572 34,000  Level FlightAware ADS-B
Sun 02:45:10 PM 43.1600 -76.2320 263° West 496 571 34,000  Level FlightAware ADS-B
Sun 02:45:50 PM 43.1500 -76.3530 264° West 495 570 34,000  Level FlightAware ADS-B
Sun 02:46:30 PM 43.1390 -76.4800 263° West 494 568 34,000  Level FlightAware ADS-B
Sun 02:47:08 PM 43.1290 -76.5950 263° West 494 568 34,000  Level FlightAware ADS-B
Sun 02:47:46 PM 43.1180 -76.7150 263° West 494 568 34,000  Level FlightAware ADS-B
Sun 02:48:30 PM 43.1090 -76.8510 265° West 492 566 34,000  Level FlightAware ADS-B
Sun 02:49:12 PM 43.1070 -76.9810 269° West 492 566 34,000  Level FlightAware ADS-B
Sun 02:49:46 PM 43.1070 -77.0880 270° West 492 566 34,000  Level FlightAware ADS-B
Sun 02:50:30 PM 43.1070 -77.2250 270° West 491 565 34,000  Level FlightAware ADS-B
Sun 02:51:12 PM 43.1070 -77.3520 270° West 490 564 34,000  Level FlightAware ADS-B
Sun 02:51:56 PM 43.1080 -77.4880 271° West 488 562 34,000  Level FlightAware ADS-B
Sun 02:52:36 PM 43.1070 -77.6120 269° West 488 562 34,000  Level FlightAware ADS-B
Sun 02:53:14 PM 43.1070 -77.7270 270° West 487 560 34,000  Level FlightAware ADS-B
Sun 02:54:26 PM 43.1060 -77.9440 270° West 487 560 34,000  Level FlightAware ADS-B
Sun 02:55:06 PM 43.1050 -78.0670 269° West 488 562 34,000  Level FlightAware ADS-B
Sun 02:55:51 PM 43.1040 -78.2000 269° West 488 562 34,000  Level FlightAware ADS-B
Sun 02:56:31 PM 43.1030 -78.3280 269° West 489 563 34,000  Level FlightAware ADS-B
Sun 02:57:11 PM 43.1020 -78.4510 269° West 489 563 34,000  Level FlightAware ADS-B
Sun 02:57:56 PM 43.1000 -78.5880 269° West 489 563 34,000  Level FlightAware ADS-B
Sun 02:58:26 PM 43.0990 -78.6840 269° West 489 563 34,000  Level FlightAware ADS-B
Sun 02:59:11 PM 43.0970 -78.8220 269° West 489 563 34,000  Level FlightAware ADS-B
Sun 02:59:53 PM 43.0950 -78.9430 269° West 489 563 34,000  Level FlightAware ADS-B
Sun 03:01:09 PM 43.0910 -79.1860 269° West 488 562 34,000  Level FlightAware ADS-B
Sun 03:01:46 PM 43.0890 -79.3030 269° West 487 560 34,000  Level FlightAware ADS-B
Sun 03:02:34 PM 43.0860 -79.4520 268° West 486 559 34,000  Level FlightAware ADS-B
Sun 03:03:14 PM 43.0830 -79.5710 268° West 484 557 34,000  Level FlightAware ADS-B
Sun 03:03:56 PM 43.0800 -79.6970 268° West 483 556 34,000  Level FlightAware ADS-B
Sun 03:04:36 PM 43.0780 -79.8110 269° West 482 555 34,000  Level FlightAware ADS-B
Sun 03:05:16 PM 43.0750 -79.9400 268° West 481 554 34,000  Level FlightAware ADS-B
Sun 03:05:56 PM 43.0710 -80.0620 267° West 481 554 34,000  Level FlightAware ADS-B
Sun 03:06:41 PM 43.0680 -80.1980 268° West 480 552 34,000  Level FlightAware ADS-B
Sun 03:07:16 PM 43.0650 -80.3020 268° West 479 551 34,000  Level FlightAware ADS-B
Sun 03:07:56 PM 43.0610 -80.4250 267° West 478 550 34,000  Level FlightAware ADS-B
Sun 03:08:36 PM 43.0580 -80.5380 268° West 477 549 34,000  Level FlightAware ADS-B
Sun 03:09:16 PM 43.0540 -80.6640 268° West 477 549 34,000  Level FlightAware ADS-B
Sun 03:10:01 PM 43.0500 -80.7910 268° West 476 548 34,000  Level FlightAware ADS-B
Sun 03:10:41 PM 43.0460 -80.9160 268° West 476 548 34,000  Level FlightAware ADS-B
Sun 03:11:26 PM 43.0410 -81.0550 267° West 476 548 34,000  Level FlightAware ADS-B
Sun 03:12:01 PM 43.0380 -81.1600 268° West 476 548 34,000  Level FlightAware ADS-B
Sun 03:12:46 PM 43.0350 -81.2940 268° West 475 547 34,000  Level FlightAware ADS-B
Sun 03:13:31 PM 43.0330 -81.4310 269° West 476 548 34,000  Level FlightAware ADS-B
Sun 03:14:07 PM 43.0310 -81.5320 268° West 476 548 34,000  Level FlightAware ADS-B
Sun 03:14:51 PM 43.0290 -81.6670 269° West 476 548 34,000  Level FlightAware ADS-B
Sun 03:15:40 PM 43.0260 -81.7750 268° West 476 548 34,000  Level FlightAware ADS-B
Sun 03:16:22 PM 43.0230 -81.9390 269° West 477 549 34,000  Level FlightAware ADS-B
Sun 03:16:58 PM 43.0200 -82.0450 268° West 477 549 34,000  Level FlightAware ADS-B
Sun 03:17:36 PM 43.0170 -82.1590 268° West 477 549 34,000  Level FlightAware ADS-B
Sun 03:18:18 PM 43.0140 -82.2890 268° West 478 550 34,000  Level FlightAware ADS-B
Sun 03:19:00 PM 43.0110 -82.4150 268° West 477 549 34,000  Level FlightAware ADS-B
Sun 03:19:40 PM 43.0070 -82.5350 267° West 478 550 34,000  Level FlightAware ADS-B
Sun 03:20:22 PM 43.0040 -82.6620 268° West 479 551 34,000  Level FlightAware ADS-B
Sun 03:20:46 PM 43.0020 -82.7300 268° West 479 551 34,000  Level FlightAware ADS-B
Sun 03:21:28 PM 42.9980 -82.8480 267° West 479 551 34,000  Level FlightAware ADS-B
Sun 03:22:28 PM 42.9920 -83.0310 267° West 481 554 34,000  Level FlightAware ADS-B
Sun 03:23:15 PM 42.9870 -83.1920 268° West 481 554 34,000  Level FlightAware ADS-B
Sun 03:23:57 PM 42.9830 -83.3200 268° West 481 554 34,000  Level FlightAware ADS-B
Sun 03:24:33 PM 42.9790 -83.4270 267° West 482 555 34,000  Level FlightAware ADS-B
Sun 03:25:13 PM 42.9740 -83.5500 267° West 482 555 34,000  Level FlightAware ADS-B
Sun 03:25:57 PM 42.9690 -83.6860 267° West 483 556 34,000  Level FlightAware ADS-B
Sun 03:26:35 PM 42.9610 -83.8010 265° West 485 558 34,000  Level FlightAware ADS-B
Sun 03:27:21 PM 42.9490 -83.9390 263° West 486 559 34,000  Level FlightAware ADS-B
Sun 03:28:01 PM 42.9370 -84.0580 262° West 486 559 34,000  Level FlightAware ADS-B
Sun 03:28:46 PM 42.9230 -84.1950 262° West 487 560 34,000  Level FlightAware ADS-B
Sun 03:29:21 PM 42.9130 -84.3000 263° West 468 539 34,000 -779 Level FlightAware ADS-B
Sun 03:30:03 PM 42.9010 -84.4230 262° West 456 525 33,000 -1,425 Descending FlightAware ADS-B
Sun 03:30:41 PM 42.8900 -84.5230 261° West 462 532 32,100 -759 Descending FlightAware ADS-B
Sun 03:31:22 PM 42.8780 -84.6460 262° West 451 519 32,000 -1,116 Descending FlightAware ADS-B
Sun 03:32:07 PM 42.8640 -84.7780 262° West 473 544 30,500 -1,326 Descending FlightAware ADS-B
Sun 03:32:48 PM 42.8520 -84.8970 262° West 472 543 30,100 -706 Descending FlightAware ADS-B
Sun 03:33:32 PM 42.8380 -85.0250 262° West 474 545 29,500 -1,050 Descending FlightAware ADS-B
Sun 03:34:08 PM 42.8260 -85.1340 261° West 471 542 28,700 -1,063 Descending FlightAware ADS-B
Sun 03:34:51 PM 42.8130 -85.2590 262° West 461 531 28,100 -1,098 Descending FlightAware ADS-B
Sun 03:35:30 PM 42.8010 -85.3690 262° West 457 526 27,200 -1,333 Descending FlightAware ADS-B
Sun 03:36:12 PM 42.7870 -85.4860 261° West 448 516 26,300 -1,333 Descending FlightAware ADS-B
Sun 03:36:51 PM 42.7690 -85.5950 257° West 442 509 25,400 -1,286 Descending FlightAware ADS-B
Sun 03:37:36 PM 42.7480 -85.7130 256° West 435 501 24,500 -955 Descending FlightAware ADS-B
Sun 03:38:19 PM 42.7270 -85.8280 256° West 430 495 24,000 -345 Descending FlightAware ADS-B
Sun 03:39:03 PM 42.7060 -85.9420 256° West 434 499 24,000 -795 Level FlightAware ADS-B
Sun 03:39:42 PM 42.6880 -86.0440 257° West 424 488 22,900 -1,373 Descending FlightAware ADS-B
Sun 03:40:26 PM 42.6680 -86.1540 256° West 396 456 22,100 -1,357 Descending FlightAware ADS-B
Sun 03:41:06 PM 42.6500 -86.2500 256° West 387 445 21,000 -1,694 Descending FlightAware ADS-B
Sun 03:41:51 PM 42.6300 -86.3550 256° West 382 440 19,700 -1,744 Descending FlightAware ADS-B
Sun 03:42:32 PM 42.6130 -86.4500 256° West 376 433 18,500 -1,481 Descending FlightAware ADS-B
Sun 03:43:12 PM 42.5960 -86.5390 255° West 358 412 17,700 -1,012 Descending FlightAware ADS-B
Sun 03:43:55 PM 42.5790 -86.6290 256° West 335 386 17,100 -1,071 Descending FlightAware ADS-B
Sun 03:44:36 PM 42.5640 -86.7090 256° West 328 377 16,200 -878 Descending FlightAware ADS-B
Sun 03:45:17 PM 42.5460 -86.7820 252° West 322 371 15,900 -1,663 Descending FlightAware ADS-B
Sun 03:45:59 PM 42.5220 -86.8660 249° West 306 352 13,900 -2,302 Descending FlightAware ADS-B
Sun 03:46:43 PM 42.5010 -86.9430 250° West 294 338 12,600 -1,694 Descending FlightAware ADS-B
Sun 03:47:24 PM 42.4830 -87.0100 250° West 292 336 11,500 -1,571 Descending FlightAware ADS-B
Sun 03:48:07 PM 42.4620 -87.0860 249° West 290 334 10,400 -1,333 Descending FlightAware ADS-B
Sun 03:48:36 PM 42.4500 -87.1330 251° West 286 329 9,900 -1,286 Descending FlightAware ADS-B
Sun 03:49:17 PM 42.4300 -87.2030 249° West 285 328 8,900 -1,029 Descending FlightAware ADS-B
Sun 03:49:46 PM 42.4170 -87.2500 249° West 284 327 8,700 -231 Descending FlightAware ADS-B
Sun 03:50:09 PM 42.4070 -87.2890 251° West 283 326 8,700  Level FlightAware ADS-B
Sun 03:50:34 PM 42.3950 -87.3310 249° West 284 327 8,700 162 Level FlightAware ADS-B
Sun 03:50:46 PM 42.3890 -87.3520 249° West 283 326 8,800  Climbing FlightAware ADS-B
Sun 03:51:11 PM 42.3780 -87.3940 250° West 284 327 8,700 -109 Descending FlightAware ADS-B
Sun 03:51:41 PM 42.3640 -87.4440 249° West 285 328 8,700  Level FlightAware ADS-B
Sun 03:52:07 PM 42.3520 -87.4870 249° West 284 327 8,700  Level FlightAware ADS-B
Sun 03:52:27 PM 42.3420 -87.5210 248° West 282 325 8,700  Level FlightAware ADS-B
Sun 03:52:39 PM 42.3330 -87.5380 234° Southwest 278 320 8,700  Level FlightAware ADS-B
Sun 03:52:55 PM 42.3190 -87.5560 224° Southwest 277 319 8,700  Level FlightAware ADS-B
Sun 03:53:22 PM 42.2910 -87.5850 217° Southwest 277 319 8,700  Level FlightAware ADS-B
Sun 03:53:51 PM 42.2620 -87.6160 218° Southwest 275 316 8,700  Level FlightAware ADS-B
Sun 03:54:19 PM 42.2340 -87.6450 217° Southwest 277 319 8,700  Level FlightAware ADS-B
Sun 03:54:47 PM 42.2050 -87.6750 217° Southwest 275 316 8,700  Level FlightAware ADS-B
Sun 03:55:11 PM 42.1810 -87.7000 218° Southwest 277 319 8,700  Level FlightAware ADS-B
Sun 03:55:35 PM 42.1570 -87.7260 219° Southwest 276 318 8,700  Level FlightAware ADS-B
Sun 03:56:04 PM 42.1310 -87.7570 221° Southwest 279 321 8,700 130 Level FlightAware ADS-B
Sun 03:56:21 PM 42.1210 -87.7850 244° Southwest 282 325 8,800  Climbing FlightAware ADS-B
Sun 03:56:47 PM 42.1090 -87.8290 250° West 283 326 8,700 -120 Descending FlightAware ADS-B
Sun 03:57:11 PM 42.0980 -87.8690 250° West 273 314 8,700  Level FlightAware ADS-B
Sun 03:57:39 PM 42.0870 -87.9120 251° West 246 283 8,700  Level FlightAware ADS-B
Sun 03:57:55 PM 42.0810 -87.9350 251° West 242 278 8,700  Level FlightAware ADS-B
Sun 03:58:24 PM 42.0760 -87.9760 261° West 226 260 8,700 103 Level FlightAware ADS-B
Sun 03:58:53 PM 42.0770 -88.0140 272° West 210 242 8,800 -327 Climbing FlightAware ADS-B
Sun 03:59:19 PM 42.0770 -88.0480 270° West 203 234 8,400 -941 Descending FlightAware ADS-B
Sun 03:59:44 PM 42.0770 -88.0780 270° West 201 231 8,000 -792 Descending FlightAware ADS-B
Sun 04:00:12 PM 42.0780 -88.1140 272° West 205 236 7,700 -947 Descending FlightAware ADS-B
Sun 04:00:41 PM 42.0790 -88.1520 272° West 201 231 7,100 -1,200 Descending FlightAware ADS-B
Sun 04:00:57 PM 42.0800 -88.1720 274° West 203 234 6,800 -511 Descending FlightAware ADS-B
Sun 04:01:28 PM 42.0800 -88.2090 270° West 200 230 6,700 -656 Descending FlightAware ADS-B
Sun 04:02:01 PM 42.0740 -88.2480 258° West 188 216 6,100 -1,358 Descending FlightAware ADS-B
Sun 04:02:21 PM 42.0580 -88.2570 203° Southwest 195 224 5,500 -1,543 Descending FlightAware ADS-B
Sun 04:02:36 PM 42.0440 -88.2580 183° South 199 229 5,200 -933 Descending FlightAware ADS-B
Sun 04:03:06 PM 42.0220 -88.2550 174° South 187 215 4,800 -857 Descending FlightAware ADS-B
Sun 04:03:11 PM 42.0150 -88.2490 148° Southeast 185 213 4,700 -1,200 Descending FlightAware ADS-B
Sun 04:03:31 PM 42.0050 -88.2290 124° Southeast 194 223 4,300 -750 Descending FlightAware ADS-B
Sun 04:03:59 PM 41.9950 -88.2000 115° Southeast 188 216 4,100 -316 Descending FlightAware ADS-B
Sun 04:04:09 PM 41.9910 -88.1890 116° Southeast 186 214 4,100 -343 Level FlightAware ADS-B
Sun 04:04:34 PM 41.9820 -88.1640 116° Southeast 188 216 3,900 -462 Descending FlightAware ADS-B
Sun 04:05:01 PM 41.9720 -88.1340 114° Southeast 189 217 3,700 -712 Descending FlightAware ADS-B
Sun 04:05:33 PM 41.9680 -88.0960 98° East 191 220 3,200 -1,017 Descending FlightAware ADS-B
Sun 04:06:00 PM 41.9690 -88.0670 87° East 186 214 2,700 -1,091 Descending FlightAware ADS-B
Sun 04:06:17 PM 41.9690 -88.0500 90° East 181 208 2,400 -1,455 Descending FlightAware ADS-B
Sun 04:06:33 PM 41.9690 -88.0290 90° East 177 204 1,900 -1,350 Descending FlightAware ADS-B
Sun 04:06:57 PM 41.9690 -88.0060 90° East 160 184 1,500 -955 Descending FlightAware ADS-B
Sun 04:07:17 PM 41.9690 -87.9870 90° East 143 165 1,200 -814 Descending FlightAware ADS-B
Sun 04:07:56 PM 41.9690 -87.9500 90° East 145 167 700 -762 Descending FlightAware ADS-B
Sun 04:08:20 PM 41.9690 -87.9290 90° East 141 162 400 -346 Descending FlightAware ADS-B
Sun 04:08:48 PM 41.9690 -87.9080 90° East 141 162 400  Level FlightAware ADS-B

Login

Don't have an account? Register now (free) for customized features, flight alerts, and more!